Time;durP1;ratioP1;P1;durP2;ratioP2;P2;SDS_P1;SDS_P2;PMS_P1;PMS_P2;Temp;Humidity;BMP_temperature;BMP_pressure;BME280_temperature;BME280_humidity;BME280_pressure;Samples;Min_cycle;Max_cycle;Signal;HPM_P1;HPM_P2
2021/01/13 00:01:03;;;;;;;4.17;0.30;;;;;;;;;;5072478;28;20073;-59
2021/01/13 00:03:28;;;;;;;3.53;0.50;;;;;;;;;;5065623;28;20025;-60
2021/01/13 00:05:53;;;;;;;1.53;0.50;;;;;;;;;;5069933;28;20357;-59
2021/01/13 00:08:19;;;;;;;1.07;0.20;;;;;;;;;;5061201;28;20543;-60
2021/01/13 00:10:44;;;;;;;4.77;0.20;;;;;;;;;;5069545;28;20023;-58
2021/01/13 00:13:09;;;;;;;5.90;0.37;;;;;;;;;;5072030;28;20553;-61
2021/01/13 00:15:34;;;;;;;3.03;0.20;;;;;;;;;;5073974;28;20576;-59
2021/01/13 00:17:59;;;;;;;3.40;0.23;;;;;;;;;;5071484;28;20024;-59
2021/01/13 00:20:25;;;;;;;1.67;0.30;;;;;;;;;;5064159;28;20016;-58
2021/01/13 00:22:50;;;;;;;1.50;0.13;;;;;;;;;;5070242;28;20418;-58
2021/01/13 00:25:16;;;;;;;3.30;0.20;;;;;;;;;;5066225;28;20142;-59
2021/01/13 00:27:41;;;;;;;1.50;0.17;;;;;;;;;;5066781;28;20020;-59
2021/01/13 00:30:06;;;;;;;2.87;0.50;;;;;;;;;;5066609;28;20040;-60
2021/01/13 00:32:32;;;;;;;2.47;0.20;;;;;;;;;;5069213;28;20108;-60
2021/01/13 00:34:57;;;;;;;1.27;0.20;;;;;;;;;;5078927;28;20016;-59
2021/01/13 00:37:22;;;;;;;3.07;0.57;;;;;;;;;;5073399;28;20028;-60
2021/01/13 00:39:48;;;;;;;2.33;0.23;;;;;;;;;;5068323;28;20039;-59
2021/01/13 00:42:13;;;;;;;3.13;0.30;;;;;;;;;;5071774;28;20016;-60
2021/01/13 00:44:38;;;;;;;4.67;0.73;;;;;;;;;;5073759;28;20013;-60
2021/01/13 00:47:03;;;;;;;2.43;0.30;;;;;;;;;;5082390;28;20503;-59
2021/01/13 00:49:29;;;;;;;1.13;0.27;;;;;;;;;;5070351;28;20069;-59
2021/01/13 00:51:54;;;;;;;2.67;0.27;;;;;;;;;;5065737;28;20025;-60
2021/01/13 00:54:19;;;;;;;4.10;0.20;;;;;;;;;;5060918;28;20115;-59
2021/01/13 00:56:46;;;;;;;3.23;0.30;;;;;;;;;;5056136;28;20025;-59
2021/01/13 00:59:11;;;;;;;5.43;0.40;;;;;;;;;;5064112;28;20055;-59
2021/01/13 01:01:37;;;;;;;2.43;0.30;;;;;;;;;;5071955;28;20486;-59
2021/01/13 01:04:03;;;;;;;3.90;0.20;;;;;;;;;;5070983;28;20383;-59
2021/01/13 01:06:28;;;;;;;2.93;0.60;;;;;;;;;;5072684;28;20074;-59
2021/01/13 01:08:53;;;;;;;7.23;0.53;;;;;;;;;;5066492;28;20722;-59
2021/01/13 01:11:23;;;;;;;3.60;0.30;;;;;;;;;;5069133;28;20566;-59
2021/01/13 01:13:48;;;;;;;4.87;0.50;;;;;;;;;;5070832;28;20113;-59
2021/01/13 01:16:13;;;;;;;3.23;0.37;;;;;;;;;;5058725;28;20567;-59
2021/01/13 01:18:39;;;;;;;6.00;0.60;;;;;;;;;;5070405;28;20017;-60
2021/01/13 01:21:06;;;;;;;4.13;0.50;;;;;;;;;;5070158;28;20055;-60
2021/01/13 01:23:32;;;;;;;4.60;0.30;;;;;;;;;;5069375;28;20025;-59
2021/01/13 01:25:57;;;;;;;2.63;0.30;;;;;;;;;;5059636;28;20024;-60
2021/01/13 01:28:22;;;;;;;4.70;0.40;;;;;;;;;;5063356;28;20532;-59
2021/01/13 01:30:47;;;;;;;3.33;0.83;;;;;;;;;;5068436;28;20035;-59
2021/01/13 01:33:12;;;;;;;5.60;0.60;;;;;;;;;;5064457;28;20031;-59
2021/01/13 01:35:38;;;;;;;3.30;0.33;;;;;;;;;;5067315;28;20048;-59
2021/01/13 01:38:03;;;;;;;3.17;0.40;;;;;;;;;;5062236;28;20108;-59
2021/01/13 01:40:28;;;;;;;8.77;0.57;;;;;;;;;;5049465;28;20017;-59
2021/01/13 01:42:54;;;;;;;7.97;0.47;;;;;;;;;;5064465;28;20028;-59
2021/01/13 01:45:24;;;;;;;7.23;0.47;;;;;;;;;;5071659;28;20052;-60
2021/01/13 01:47:58;;;;;;;3.13;0.40;;;;;;;;;;5066907;28;20036;-60
2021/01/13 01:50:25;;;;;;;1.65;0.17;;;;;;;;;;5066738;28;20021;-60
2021/01/13 01:52:54;;;;;;;3.13;0.20;;;;;;;;;;5090041;28;20479;-59
2021/01/13 01:55:23;;;;;;;1.50;0.20;;;;;;;;;;5071871;28;20487;-58
2021/01/13 01:57:54;;;;;;;3.00;0.50;;;;;;;;;;5070216;28;20028;-60
2021/01/13 02:00:30;;;;;;;4.17;0.50;;;;;;;;;;5067351;28;20086;-59
2021/01/13 02:02:55;;;;;;;;;;;;;;;;;;5074111;28;20514;-59
2021/01/13 02:05:20;;;;;;;4.13;0.30;;;;;;;;;;5066411;28;20374;-60
2021/01/13 02:07:47;;;;;;;3.83;0.40;;;;;;;;;;5061144;28;20040;-59
2021/01/13 02:10:12;;;;;;;3.97;0.50;;;;;;;;;;5060294;28;20016;-59
2021/01/13 02:12:45;;;;;;;7.17;0.63;;;;;;;;;;5067968;28;20020;-58
2021/01/13 02:15:10;;;;;;;0.60;0.10;;;;;;;;;;5071136;28;20029;-60
2021/01/13 02:17:37;;;;;;;6.73;0.50;;;;;;;;;;5064967;28;20438;-59
2021/01/13 02:20:09;;;;;;;5.83;0.20;;;;;;;;;;5060559;28;20406;-60
2021/01/13 02:22:55;;;;;;;3.40;0.33;;;;;;;;;;5066375;28;20351;-60
2021/01/13 02:25:20;;;;;;;3.22;0.50;;;;;;;;;;5054046;28;20535;-60
2021/01/13 02:27:45;;;;;;;4.93;0.63;;;;;;;;;;5071413;28;20024;-60
2021/01/13 02:30:11;;;;;;;2.53;0.40;;;;;;;;;;5064737;28;20021;-62
2021/01/13 02:32:40;;;;;;;3.63;0.40;;;;;;;;;;5080905;28;20028;-59
2021/01/13 02:35:13;;;;;;;4.77;0.40;;;;;;;;;;5052432;28;20615;-59
2021/01/13 02:37:38;;;;;;;3.97;0.20;;;;;;;;;;5068960;28;20028;-59
2021/01/13 02:40:11;;;;;;;4.10;0.30;;;;;;;;;;5068190;28;20077;-59
2021/01/13 02:42:37;;;;;;;4.60;0.50;;;;;;;;;;5078704;28;20021;-59
2021/01/13 02:45:06;;;;;;;3.77;0.60;;;;;;;;;;5066403;28;20100;-58
2021/01/13 02:47:48;;;;;;;2.97;0.30;;;;;;;;;;5067919;28;20483;-60
2021/01/13 02:50:23;;;;;;;6.83;0.50;;;;;;;;;;5051812;28;20020;-59
2021/01/13 02:53:04;;;;;;;1.00;0.20;;;;;;;;;;5088779;28;20100;-59
2021/01/13 02:55:29;;;;;;;3.40;0.23;;;;;;;;;;5062719;28;20028;-59
2021/01/13 02:57:56;;;;;;;2.93;0.57;;;;;;;;;;5068613;28;20082;-59
2021/01/13 03:00:22;;;;;;;6.87;0.53;;;;;;;;;;5064467;28;20028;-59
2021/01/13 03:02:49;;;;;;;6.10;0.37;;;;;;;;;;5069929;28;20017;-59
2021/01/13 03:05:15;;;;;;;9.13;1.07;;;;;;;;;;5072359;28;20025;-59
2021/01/13 03:07:42;;;;;;;3.57;0.30;;;;;;;;;;5060150;28;20493;-59
2021/01/13 03:10:11;;;;;;;3.80;0.53;;;;;;;;;;5079041;28;20486;-59
2021/01/13 03:12:39;;;;;;;2.03;0.40;;;;;;;;;;5074634;28;20032;-59
2021/01/13 03:15:04;;;;;;;4.43;0.50;;;;;;;;;;5056935;28;20028;-59
2021/01/13 03:17:29;;;;;;;3.43;0.37;;;;;;;;;;5063309;28;20407;-59
2021/01/13 03:20:04;;;;;;;6.00;0.50;;;;;;;;;;5054083;28;20388;-59
2021/01/13 03:22:32;;;;;;;6.40;0.50;;;;;;;;;;5084630;28;20047;-59
2021/01/13 03:25:00;;;;;;;9.73;0.70;;;;;;;;;;5082249;28;20499;-58
2021/01/13 03:27:30;;;;;;;6.00;0.60;;;;;;;;;;5072439;28;20028;-59
2021/01/13 03:29:57;;;;;;;5.00;0.30;;;;;;;;;;5071969;28;20565;-58
2021/01/13 03:32:28;;;;;;;5.07;0.20;;;;;;;;;;5070697;28;20154;-59
2021/01/13 03:34:59;;;;;;;5.43;0.90;;;;;;;;;;5067728;28;20027;-59
2021/01/13 03:37:25;;;;;;;2.47;0.70;;;;;;;;;;5060548;28;20082;-59
2021/01/13 03:39:55;;;;;;;7.77;1.00;;;;;;;;;;5071877;28;20050;-59
2021/01/13 03:42:21;;;;;;;4.70;0.73;;;;;;;;;;5070657;28;20099;-59
2021/01/13 03:44:47;;;;;;;3.40;0.50;;;;;;;;;;5074233;28;20474;-59
2021/01/13 03:47:24;;;;;;;7.60;1.50;;;;;;;;;;5074525;28;20146;-59
2021/01/13 03:49:52;;;;;;;7.63;0.60;;;;;;;;;;5071447;28;20066;-59
2021/01/13 03:52:17;;;;;;;7.40;0.77;;;;;;;;;;5073951;28;20463;-59
2021/01/13 03:54:43;;;;;;;7.67;1.13;;;;;;;;;;5074544;28;20020;-60
2021/01/13 03:57:08;;;;;;;5.40;1.10;;;;;;;;;;5073769;28;20498;-59
2021/01/13 03:59:34;;;;;;;2.63;0.63;;;;;;;;;;5051326;28;20120;-59
2021/01/13 04:02:01;;;;;;;5.60;0.53;;;;;;;;;;5074942;28;20356;-60
2021/01/13 04:04:52;;;;;;;2.67;0.30;;;;;;;;;;5066940;28;20032;-60
2021/01/13 04:07:21;;;;;;;3.93;0.33;;;;;;;;;;5035421;28;20060;-59
2021/01/13 04:09:47;;;;;;;4.77;0.43;;;;;;;;;;5064375;28;20033;-60
2021/01/13 04:12:14;;;;;;;7.30;1.27;;;;;;;;;;5074092;28;20391;-61
2021/01/13 04:14:46;;;;;;;7.47;0.80;;;;;;;;;;5067660;28;20021;-60
2021/01/13 04:17:13;;;;;;;4.63;0.80;;;;;;;;;;5073556;28;20025;-60
2021/01/13 04:19:38;;;;;;;6.20;0.57;;;;;;;;;;5091096;28;20069;-60
2021/01/13 04:22:04;;;;;;;7.63;0.30;;;;;;;;;;5072980;28;20025;-61
2021/01/13 04:24:29;;;;;;;3.27;0.47;;;;;;;;;;5058101;28;20602;-58
2021/01/13 04:26:54;;;;;;;5.83;0.20;;;;;;;;;;5067427;28;20024;-60
2021/01/13 04:29:19;;;;;;;7.70;0.50;;;;;;;;;;5061187;28;20055;-60
2021/01/13 04:31:45;;;;;;;5.23;0.30;;;;;;;;;;5057598;28;20020;-61
2021/01/13 04:34:10;;;;;;;3.37;0.40;;;;;;;;;;5072452;28;20081;-59
2021/01/13 04:36:40;;;;;;;2.00;0.23;;;;;;;;;;5063001;28;20033;-61
2021/01/13 04:39:06;;;;;;;6.10;0.70;;;;;;;;;;5050356;28;20074;-58
2021/01/13 04:41:46;;;;;;;2.13;0.40;;;;;;;;;;5053803;28;20489;-59
2021/01/13 04:44:13;;;;;;;5.50;1.13;;;;;;;;;;5057968;28;20021;-59
2021/01/13 04:46:39;;;;;;;10.63;1.17;;;;;;;;;;5066491;28;20024;-60
2021/01/13 04:49:06;;;;;;;4.43;0.70;;;;;;;;;;5068856;28;20032;-58
2021/01/13 04:51:32;;;;;;;6.40;0.60;;;;;;;;;;5052726;28;20107;-58
2021/01/13 04:53:57;;;;;;;4.13;0.40;;;;;;;;;;5060805;28;20136;-61
2021/01/13 04:56:25;;;;;;;2.00;0.27;;;;;;;;;;5060964;28;20495;-58
2021/01/13 04:58:53;;;;;;;4.03;0.40;;;;;;;;;;5066913;28;20446;-60
2021/01/13 05:01:23;;;;;;;4.60;0.60;;;;;;;;;;5064719;28;20483;-59
2021/01/13 05:04:07;;;;;;;6.00;0.50;;;;;;;;;;5069714;28;20020;-59
2021/01/13 05:06:33;;;;;;;4.47;0.50;;;;;;;;;;5072936;28;20016;-60
2021/01/13 05:09:05;;;;;;;4.07;1.43;;;;;;;;;;5066876;28;20032;-59
2021/01/13 05:11:50;;;;;;;6.40;0.73;;;;;;;;;;5073146;28;20036;-59
2021/01/13 05:14:16;;;;;;;9.43;1.05;;;;;;;;;;5056182;28;20032;-60
2021/01/13 05:16:48;;;;;;;5.33;0.77;;;;;;;;;;5071206;28;20024;-59
2021/01/13 05:19:21;;;;;;;4.47;0.50;;;;;;;;;;5069141;28;20459;-59
2021/01/13 05:21:49;;;;;;;5.20;1.10;;;;;;;;;;5071288;28;20417;-60
2021/01/13 05:24:16;;;;;;;3.07;0.50;;;;;;;;;;5061817;28;20110;-59
2021/01/13 05:26:41;;;;;;;7.60;0.50;;;;;;;;;;5064763;28;20015;-59
2021/01/13 05:29:12;;;;;;;8.37;1.20;;;;;;;;;;5071984;28;20024;-58
2021/01/13 05:31:40;;;;;;;9.97;0.93;;;;;;;;;;5054814;28;20392;-60
2021/01/13 05:34:06;;;;;;;6.67;1.23;;;;;;;;;;5071296;28;20489;-59
2021/01/13 05:36:32;;;;;;;2.63;0.50;;;;;;;;;;5074535;28;20027;-59
2021/01/13 05:39:05;;;;;;;7.77;0.77;;;;;;;;;;5063812;28;20021;-60
2021/01/13 05:41:30;;;;;;;5.97;0.70;;;;;;;;;;5069656;28;20021;-59
2021/01/13 05:43:56;;;;;;;6.20;0.60;;;;;;;;;;5085228;28;20078;-58
2021/01/13 05:46:21;;;;;;;1.33;0.10;;;;;;;;;;5072357;28;20032;-59
2021/01/13 05:48:48;;;;;;;6.70;0.93;;;;;;;;;;5069035;28;20024;-59
2021/01/13 05:51:14;;;;;;;4.23;0.50;;;;;;;;;;5058854;28;20483;-59
2021/01/13 05:53:49;;;;;;;3.60;0.30;;;;;;;;;;5066057;28;20429;-59
2021/01/13 05:56:14;;;;;;;;;;;;;;;;;;5057936;28;20017;-60
2021/01/13 05:58:39;;;;;;;5.10;0.32;;;;;;;;;;5047837;28;20293;-59
2021/01/13 06:01:20;;;;;;;8.40;0.50;;;;;;;;;;5062378;28;20418;-60
2021/01/13 06:03:46;;;;;;;6.47;0.93;;;;;;;;;;5060399;28;20395;-59
2021/01/13 06:06:11;;;;;;;2.80;0.30;;;;;;;;;;5072477;28;20025;-60
2021/01/13 06:08:40;;;;;;;2.50;0.40;;;;;;;;;;5054787;28;20115;-60
2021/01/13 06:11:06;;;;;;;2.87;0.50;;;;;;;;;;5058008;28;20443;-59
2021/01/13 06:13:34;;;;;;;11.80;1.10;;;;;;;;;;5070286;28;20032;-60
2021/01/13 06:16:01;;;;;;;2.30;0.33;;;;;;;;;;5063073;28;20023;-60
2021/01/13 06:18:26;;;;;;;8.47;0.50;;;;;;;;;;5061517;28;20024;-60
2021/01/13 06:20:54;;;;;;;4.83;0.43;;;;;;;;;;5067519;28;20024;-60
2021/01/13 06:23:21;;;;;;;7.30;0.60;;;;;;;;;;5062060;28;20474;-60
2021/01/13 06:25:51;;;;;;;8.20;1.03;;;;;;;;;;5060190;28;20052;-60
2021/01/13 06:28:26;;;;;;;8.40;0.40;;;;;;;;;;5065095;28;20498;-60
2021/01/13 06:31:01;;;;;;;3.83;0.52;;;;;;;;;;5074813;28;20024;-60
2021/01/13 06:33:33;;;;;;;3.43;0.30;;;;;;;;;;5063984;28;20025;-60
2021/01/13 06:35:59;;;;;;;3.63;0.40;;;;;;;;;;5056066;28;20021;-60
2021/01/13 06:38:43;;;;;;;4.03;0.73;;;;;;;;;;5066912;28;20078;-60
2021/01/13 06:41:08;;;;;;;7.60;1.43;;;;;;;;;;5069102;28;20111;-61
2021/01/13 06:43:34;;;;;;;4.50;0.67;;;;;;;;;;5075573;28;20107;-60
2021/01/13 06:45:59;;;;;;;2.97;0.40;;;;;;;;;;5060990;28;20021;-60
2021/01/13 06:48:25;;;;;;;2.77;0.47;;;;;;;;;;5063203;28;20117;-60
2021/01/13 06:51:00;;;;;;;5.70;0.60;;;;;;;;;;5056715;28;20378;-60
2021/01/13 06:53:35;;;;;;;6.60;1.05;;;;;;;;;;5068546;28;20028;-60
2021/01/13 06:56:00;;;;;;;;;;;;;;;;;;5062945;28;20029;-60
2021/01/13 06:58:26;;;;;;;3.88;0.93;;;;;;;;;;5057834;28;19919;-60
2021/01/13 07:01:00;;;;;;;5.50;0.90;;;;;;;;;;5060894;28;20502;-60
2021/01/13 07:03:27;;;;;;;2.57;0.57;;;;;;;;;;5056609;28;20032;-60
2021/01/13 07:05:56;;;;;;;4.80;0.63;;;;;;;;;;5074010;28;20100;-60
2021/01/13 07:08:22;;;;;;;3.87;0.60;;;;;;;;;;5064692;28;20028;-60
2021/01/13 07:10:48;;;;;;;5.43;0.80;;;;;;;;;;5072098;28;20032;-60
2021/01/13 07:13:15;;;;;;;6.30;0.80;;;;;;;;;;5074097;28;20020;-61
2021/01/13 07:15:40;;;;;;;5.20;0.53;;;;;;;;;;5065418;28;20032;-60
2021/01/13 07:18:06;;;;;;;2.80;0.67;;;;;;;;;;5073484;28;20028;-60
2021/01/13 07:20:38;;;;;;;9.57;1.03;;;;;;;;;;5058911;28;20090;-60
2021/01/13 07:23:04;;;;;;;6.27;0.80;;;;;;;;;;5064677;28;20072;-60
2021/01/13 07:25:29;;;;;;;9.90;0.67;;;;;;;;;;5054094;28;20127;-60
2021/01/13 07:27:59;;;;;;;9.77;1.37;;;;;;;;;;5061188;28;20074;-60
2021/01/13 07:30:24;;;;;;;7.30;1.20;;;;;;;;;;5059552;28;20020;-60
2021/01/13 07:32:57;;;;;;;2.83;0.50;;;;;;;;;;5064047;28;20027;-60
2021/01/13 07:35:24;;;;;;;3.93;0.43;;;;;;;;;;5058765;28;20027;-60
2021/01/13 07:37:58;;;;;;;5.57;0.50;;;;;;;;;;5059452;28;20017;-59
2021/01/13 07:40:29;;;;;;;2.73;0.50;;;;;;;;;;5057235;28;20480;-61
2021/01/13 07:43:05;;;;;;;6.97;0.97;;;;;;;;;;5058951;28;20025;-60
2021/01/13 07:45:37;;;;;;;3.13;0.40;;;;;;;;;;5079119;28;20035;-60
2021/01/13 07:48:08;;;;;;;6.23;0.73;;;;;;;;;;5056160;28;20028;-60
2021/01/13 07:50:38;;;;;;;3.40;0.60;;;;;;;;;;5060889;28;20463;-60
2021/01/13 07:53:07;;;;;;;8.00;0.60;;;;;;;;;;5061174;28;20070;-60
2021/01/13 07:55:37;;;;;;;4.57;0.60;;;;;;;;;;5060721;28;20048;-60
2021/01/13 07:58:16;;;;;;;5.80;0.33;;;;;;;;;;5060627;28;20838;-60
2021/01/13 08:00:52;;;;;;;4.43;0.57;;;;;;;;;;5061080;28;20510;-60
2021/01/13 08:03:18;;;;;;;4.20;0.40;;;;;;;;;;5064647;28;20021;-60
2021/01/13 08:06:01;;;;;;;6.00;0.90;;;;;;;;;;5074340;28;20086;-61
2021/01/13 08:08:36;;;;;;;3.70;0.83;;;;;;;;;;5072075;28;20031;-61
2021/01/13 08:11:02;;;;;;;6.50;0.90;;;;;;;;;;5070296;28;20028;-60
2021/01/13 08:13:30;;;;;;;7.80;1.40;;;;;;;;;;5069023;28;20025;-61
2021/01/13 08:15:56;;;;;;;4.70;0.77;;;;;;;;;;5064405;28;20063;-62
2021/01/13 08:18:53;;;;;;;2.53;0.20;;;;;;;;;;5053482;28;20055;-61
2021/01/13 08:21:33;;;;;;;2.27;0.43;;;;;;;;;;5059313;28;20047;-62
2021/01/13 08:24:06;;;;;;;7.20;1.10;;;;;;;;;;5059926;28;20598;-61
2021/01/13 08:26:32;;;;;;;8.60;0.97;;;;;;;;;;5052119;28;20028;-61
2021/01/13 08:28:58;;;;;;;7.57;0.80;;;;;;;;;;5058906;28;20033;-62
2021/01/13 08:31:25;;;;;;;5.23;0.57;;;;;;;;;;5064891;28;20039;-60
2021/01/13 08:34:02;;;;;;;3.10;0.57;;;;;;;;;;5055690;28;20068;-60
2021/01/13 08:36:27;;;;;;;3.57;0.80;;;;;;;;;;5057691;28;20386;-61
2021/01/13 08:39:08;;;;;;;9.27;0.87;;;;;;;;;;5050838;28;20025;-61
2021/01/13 08:41:34;;;;;;;4.23;0.50;;;;;;;;;;5061549;28;20123;-60
2021/01/13 08:44:04;;;;;;;4.17;0.83;;;;;;;;;;5062685;28;20016;-61
2021/01/13 08:46:39;;;;;;;4.63;0.70;;;;;;;;;;5072941;28;20470;-61
2021/01/13 08:49:05;;;;;;;7.27;0.80;;;;;;;;;;5068244;28;20522;-60
2021/01/13 08:51:31;;;;;;;4.80;0.60;;;;;;;;;;5053673;28;20024;-61
2021/01/13 08:54:14;;;;;;;6.70;0.50;;;;;;;;;;5070503;28;20161;-61
2021/01/13 08:56:59;;;;;;;9.93;1.53;;;;;;;;;;5072894;28;20024;-60
2021/01/13 08:59:46;;;;;;;7.10;1.37;;;;;;;;;;5070571;28;20031;-60
2021/01/13 09:02:13;;;;;;;4.50;0.83;;;;;;;;;;5067801;28;20017;-60
2021/01/13 09:04:45;;;;;;;6.17;1.13;;;;;;;;;;5058548;28;20032;-61
2021/01/13 09:07:12;;;;;;;4.70;1.00;;;;;;;;;;5066979;28;20057;-61
2021/01/13 09:09:40;;;;;;;9.70;1.20;;;;;;;;;;5089784;28;20583;-61
2021/01/13 09:12:24;;;;;;;7.83;1.10;;;;;;;;;;5083573;28;20249;-61
2021/01/13 09:15:09;;;;;;;5.10;1.07;;;;;;;;;;5062812;28;20459;-61
2021/01/13 09:17:34;;;;;;;7.00;1.00;;;;;;;;;;5068664;28;20395;-61
2021/01/13 09:20:06;;;;;;;3.00;0.47;;;;;;;;;;5068713;28;20024;-60
2021/01/13 09:22:41;;;;;;;8.23;1.40;;;;;;;;;;5072116;28;20090;-61
2021/01/13 09:25:13;;;;;;;1.55;0.47;;;;;;;;;;5057091;28;20134;-61
2021/01/13 09:27:43;;;;;;;3.07;0.30;;;;;;;;;;5072350;28;20031;-60
2021/01/13 09:30:08;;;;;;;5.30;1.10;;;;;;;;;;5067815;28;20063;-60
2021/01/13 09:32:49;;;;;;;1.83;0.70;;;;;;;;;;5068099;28;20008;-60
2021/01/13 09:35:21;;;;;;;6.10;1.37;;;;;;;;;;5068833;28;20028;-60
2021/01/13 09:37:50;;;;;;;2.20;0.40;;;;;;;;;;5052219;28;20111;-60
2021/01/13 09:40:16;;;;;;;3.07;0.30;;;;;;;;;;5051062;28;20113;-61
2021/01/13 09:42:45;;;;;;;6.10;0.70;;;;;;;;;;5072482;28;20024;-61
2021/01/13 09:45:11;;;;;;;5.57;1.03;;;;;;;;;;5071469;28;20099;-60
2021/01/13 09:47:37;;;;;;;7.07;1.13;;;;;;;;;;5071800;28;20427;-60
2021/01/13 09:50:02;;;;;;;7.67;1.50;;;;;;;;;;5052938;28;20013;-61
2021/01/13 09:52:41;;;;;;;5.37;1.03;;;;;;;;;;5068742;28;20029;-61
2021/01/13 09:55:10;;;;;;;2.03;0.50;;;;;;;;;;5071731;28;20032;-61
2021/01/13 09:57:36;;;;;;;5.73;1.00;;;;;;;;;;5067049;28;20025;-61
2021/01/13 10:00:12;;;;;;;4.17;0.80;;;;;;;;;;5049604;28;20028;-60
2021/01/13 10:02:38;;;;;;;5.53;1.10;;;;;;;;;;5051913;28;20491;-60
2021/01/13 10:05:04;;;;;;;3.70;0.60;;;;;;;;;;5068580;28;20017;-61
2021/01/13 10:07:30;;;;;;;10.23;0.90;;;;;;;;;;5054647;28;20429;-60
2021/01/13 10:09:56;;;;;;;3.57;0.43;;;;;;;;;;5067570;28;20028;-60
2021/01/13 10:12:22;;;;;;;3.03;0.43;;;;;;;;;;5072078;28;20024;-62
2021/01/13 10:14:51;;;;;;;1.23;0.37;;;;;;;;;;5063808;28;20017;-62
2021/01/13 10:17:25;;;;;;;3.23;0.77;;;;;;;;;;5052081;28;20032;-62
2021/01/13 10:19:51;;;;;;;2.65;0.52;;;;;;;;;;5048950;28;20102;-62
2021/01/13 10:22:17;;;;;;;5.33;1.13;;;;;;;;;;5053852;28;20056;-62
2021/01/13 10:24:42;;;;;;;4.93;0.40;;;;;;;;;;5070819;28;20044;-62
2021/01/13 10:27:09;;;;;;;3.17;0.87;;;;;;;;;;5071350;28;20012;-61
2021/01/13 10:29:34;;;;;;;3.60;0.83;;;;;;;;;;5068781;28;20493;-61
2021/01/13 10:32:00;;;;;;;9.63;1.97;;;;;;;;;;5070405;28;20024;-61
2021/01/13 10:34:25;;;;;;;6.70;1.10;;;;;;;;;;5060726;28;20022;-62
2021/01/13 10:36:51;;;;;;;4.80;1.10;;;;;;;;;;5051037;28;20017;-61
2021/01/13 10:39:19;;;;;;;2.60;0.50;;;;;;;;;;5066213;28;20029;-61
2021/01/13 10:41:48;;;;;;;7.30;2.30;;;;;;;;;;5062453;28;20462;-60
2021/01/13 10:44:18;;;;;;;10.97;2.80;;;;;;;;;;5060982;28;20021;-61
2021/01/13 10:46:44;;;;;;;6.07;1.70;;;;;;;;;;5051778;28;20336;-60
2021/01/13 10:49:20;;;;;;;1.90;1.10;;;;;;;;;;5063529;28;20028;-61
2021/01/13 10:51:46;;;;;;;7.87;1.90;;;;;;;;;;5060933;28;20040;-62
2021/01/13 10:54:15;;;;;;;8.43;2.30;;;;;;;;;;5071095;28;20032;-61
2021/01/13 10:56:41;;;;;;;3.73;0.73;;;;;;;;;;5058778;28;20025;-59
2021/01/13 10:59:11;;;;;;;7.83;2.67;;;;;;;;;;5065888;28;20033;-60
2021/01/13 11:01:38;;;;;;;9.10;2.27;;;;;;;;;;5069221;28;20471;-60
2021/01/13 11:04:04;;;;;;;6.60;1.43;;;;;;;;;;5065901;28;20017;-61
2021/01/13 11:06:29;;;;;;;6.93;2.10;;;;;;;;;;5050626;28;20380;-61
2021/01/13 11:08:56;;;;;;;5.90;2.03;;;;;;;;;;5056350;28;20326;-60
2021/01/13 11:11:22;;;;;;;8.37;2.23;;;;;;;;;;5056843;28;20021;-60
2021/01/13 11:13:47;;;;;;;6.30;2.03;;;;;;;;;;5054993;28;20017;-60
2021/01/13 11:16:13;;;;;;;8.33;1.03;;;;;;;;;;5066538;28;20463;-60
2021/01/13 11:18:40;;;;;;;7.23;2.93;;;;;;;;;;5068227;28;20533;-60
2021/01/13 11:21:09;;;;;;;5.87;1.90;;;;;;;;;;5069272;28;20023;-61
2021/01/13 11:23:44;;;;;;;6.93;2.30;;;;;;;;;;5073885;28;20016;-60
2021/01/13 11:26:09;;;;;;;3.20;1.20;;;;;;;;;;5073762;28;20025;-61
2021/01/13 11:28:36;;;;;;;10.60;2.00;;;;;;;;;;5060663;28;20355;-61
2021/01/13 11:31:03;;;;;;;4.50;1.17;;;;;;;;;;5054850;28;20383;-61
2021/01/13 11:33:28;;;;;;;5.27;1.77;;;;;;;;;;5078830;28;20028;-61
2021/01/13 11:35:54;;;;;;;4.90;2.10;;;;;;;;;;5068242;28;20055;-61
2021/01/13 11:38:34;;;;;;;7.43;1.87;;;;;;;;;;5053573;28;20025;-61
2021/01/13 11:41:15;;;;;;;6.47;1.17;;;;;;;;;;5068050;28;20087;-61
2021/01/13 11:43:48;;;;;;;7.77;2.67;;;;;;;;;;5068941;28;20036;-61
2021/01/13 11:46:15;;;;;;;4.60;0.90;;;;;;;;;;5067092;28;20408;-61
2021/01/13 11:48:59;;;;;;;4.67;1.07;;;;;;;;;;5050116;28;20025;-60
2021/01/13 11:51:27;;;;;;;9.13;2.40;;;;;;;;;;5063185;28;20055;-60
2021/01/13 11:53:52;;;;;;;4.57;1.07;;;;;;;;;;5065611;28;20029;-59
2021/01/13 11:56:26;;;;;;;5.17;2.37;;;;;;;;;;5059779;28;20033;-59
2021/01/13 11:58:51;;;;;;;7.57;1.90;;;;;;;;;;5053750;28;20727;-59
2021/01/13 12:01:17;;;;;;;4.27;1.83;;;;;;;;;;5073087;28;20016;-59
2021/01/13 12:03:42;;;;;;;4.40;1.20;;;;;;;;;;5073053;28;20028;-60
2021/01/13 12:06:08;;;;;;;7.10;3.37;;;;;;;;;;5068839;28;20462;-60
2021/01/13 12:08:33;;;;;;;8.77;3.43;;;;;;;;;;5070527;28;20432;-59
2021/01/13 12:10:59;;;;;;;4.77;1.60;;;;;;;;;;5072397;28;20047;-59
2021/01/13 12:13:29;;;;;;;2.87;1.30;;;;;;;;;;5072292;28;20051;-60
2021/01/13 12:15:54;;;;;;;5.47;2.70;;;;;;;;;;5072843;28;20031;-60
2021/01/13 12:18:27;;;;;;;11.33;2.30;;;;;;;;;;5073252;28;20020;-58
2021/01/13 12:20:53;;;;;;;9.13;3.67;;;;;;;;;;5072338;28;20383;-59
2021/01/13 12:23:29;;;;;;;6.70;2.03;;;;;;;;;;5072400;28;20467;-61
2021/01/13 12:26:15;;;;;;;5.70;2.20;;;;;;;;;;5072106;28;20391;-59
2021/01/13 12:28:41;;;;;;;8.43;2.33;;;;;;;;;;5059778;28;20060;-59
2021/01/13 12:31:06;;;;;;;3.40;0.90;;;;;;;;;;5072892;28;20032;-59
2021/01/13 12:33:32;;;;;;;3.37;1.17;;;;;;;;;;5072313;28;20494;-59
2021/01/13 12:35:57;;;;;;;6.73;3.40;;;;;;;;;;5070935;28;20020;-60
2021/01/13 12:38:38;;;;;;;5.57;1.90;;;;;;;;;;5071899;28;20383;-59
2021/01/13 12:41:04;;;;;;;5.50;1.97;;;;;;;;;;5073259;28;20046;-59
2021/01/13 12:43:33;;;;;;;5.87;2.73;;;;;;;;;;5060433;28;20115;-57
2021/01/13 12:45:58;;;;;;;9.73;4.30;;;;;;;;;;5063097;28;20463;-59
2021/01/13 12:48:23;;;;;;;7.63;1.77;;;;;;;;;;5059217;28;20021;-59
2021/01/13 12:50:49;;;;;;;5.23;3.20;;;;;;;;;;5056780;28;20017;-59
2021/01/13 12:53:14;;;;;;;9.30;3.07;;;;;;;;;;5066685;28;20111;-59
2021/01/13 12:55:39;;;;;;;2.33;1.73;;;;;;;;;;5066356;28;20467;-59
2021/01/13 12:58:04;;;;;;;6.10;2.57;;;;;;;;;;5056033;28;20021;-59
2021/01/13 13:00:30;;;;;;;8.03;3.13;;;;;;;;;;5051716;28;20021;-59
2021/01/13 13:02:55;;;;;;;5.53;2.70;;;;;;;;;;5062123;28;20016;-59
2021/01/13 13:05:20;;;;;;;5.77;2.70;;;;;;;;;;5061961;28;20083;-60
2021/01/13 13:07:45;;;;;;;5.53;2.43;;;;;;;;;;5060870;28;20013;-59
2021/01/13 13:10:11;;;;;;;4.70;0.97;;;;;;;;;;5051399;28;20336;-60
2021/01/13 13:12:36;;;;;;;4.20;1.00;;;;;;;;;;5064816;28;20017;-61
2021/01/13 13:15:02;;;;;;;4.20;1.83;;;;;;;;;;5073053;28;20017;-59
2021/01/13 13:17:27;;;;;;;1.77;1.07;;;;;;;;;;5070690;28;20489;-59
2021/01/13 13:19:53;;;;;;;5.90;1.97;;;;;;;;;;5053141;28;20021;-59
2021/01/13 13:22:18;;;;;;;4.87;2.63;;;;;;;;;;5062627;28;20431;-58
2021/01/13 13:24:43;;;;;;;4.33;1.50;;;;;;;;;;5063437;28;20423;-58
2021/01/13 13:27:09;;;;;;;8.47;3.90;;;;;;;;;;5061526;28;20039;-59
2021/01/13 13:29:35;;;;;;;6.53;3.63;;;;;;;;;;5053399;28;20416;-60
2021/01/13 13:32:00;;;;;;;7.17;3.37;;;;;;;;;;5057951;28;20029;-61
2021/01/13 13:34:25;;;;;;;5.30;3.50;;;;;;;;;;5062759;28;20020;-61
2021/01/13 13:36:55;;;;;;;7.20;3.77;;;;;;;;;;5059539;28;20063;-60
2021/01/13 13:39:21;;;;;;;5.87;3.53;;;;;;;;;;5052055;28;20053;-61
2021/01/13 13:41:46;;;;;;;9.60;5.30;;;;;;;;;;5053449;28;20063;-61
2021/01/13 13:44:12;;;;;;;6.03;4.67;;;;;;;;;;5062074;28;20067;-61
2021/01/13 13:46:37;;;;;;;3.30;1.03;;;;;;;;;;5058716;28;20020;-60
2021/01/13 13:49:02;;;;;;;2.37;1.20;;;;;;;;;;5051711;28;20017;-61
2021/01/13 13:51:27;;;;;;;4.77;2.47;;;;;;;;;;5060904;28;20021;-61
2021/01/13 13:53:52;;;;;;;4.50;2.80;;;;;;;;;;5057807;28;20017;-61
2021/01/13 13:56:18;;;;;;;5.43;2.80;;;;;;;;;;5053388;28;20073;-61
2021/01/13 13:58:43;;;;;;;5.80;2.87;;;;;;;;;;5049266;28;20031;-60
2021/01/13 14:01:08;;;;;;;4.03;2.63;;;;;;;;;;5057828;28;20452;-60
2021/01/13 14:03:34;;;;;;;4.73;3.30;;;;;;;;;;5053165;28;20028;-60
2021/01/13 14:05:59;;;;;;;5.17;2.77;;;;;;;;;;5058470;28;20020;-60
2021/01/13 14:08:24;;;;;;;5.63;2.47;;;;;;;;;;5061042;28;20466;-60
2021/01/13 14:10:50;;;;;;;3.30;2.20;;;;;;;;;;5058572;28;20031;-60
2021/01/13 14:13:15;;;;;;;2.00;1.10;;;;;;;;;;5058851;28;20119;-60
2021/01/13 14:15:40;;;;;;;4.50;2.77;;;;;;;;;;5055278;28;20043;-60
2021/01/13 14:18:05;;;;;;;4.20;1.70;;;;;;;;;;5058804;28;20480;-60
2021/01/13 14:20:31;;;;;;;3.50;2.47;;;;;;;;;;5062232;28;20024;-63
2021/01/13 14:22:56;;;;;;;2.77;1.83;;;;;;;;;;5066260;28;20024;-65
2021/01/13 14:25:21;;;;;;;6.07;2.23;;;;;;;;;;5069948;28;20123;-66
2021/01/13 14:27:47;;;;;;;4.17;2.10;;;;;;;;;;5064916;28;20039;-64
2021/01/13 14:30:13;;;;;;;2.10;0.70;;;;;;;;;;5062718;28;20416;-63
2021/01/13 14:32:38;;;;;;;2.77;2.03;;;;;;;;;;5058247;28;20047;-64
2021/01/13 14:35:04;;;;;;;5.10;2.07;;;;;;;;;;5064850;28;20502;-67
2021/01/13 14:37:33;;;;;;;5.00;2.50;;;;;;;;;;5058808;28;20029;-64
2021/01/13 14:39:58;;;;;;;2.67;1.50;;;;;;;;;;5063756;28;20029;-64
2021/01/13 14:42:24;;;;;;;2.73;1.93;;;;;;;;;;5072010;28;20020;-67
2021/01/13 14:44:49;;;;;;;3.17;2.53;;;;;;;;;;5064054;28;20097;-63
2021/01/13 14:47:14;;;;;;;4.50;2.30;;;;;;;;;;5060181;28;20017;-64
2021/01/13 14:49:40;;;;;;;2.13;1.13;;;;;;;;;;5062450;28;20071;-64